createdAt,value
2022-12-05T00:01:49.094Z,24.25
2022-12-05T00:04:19.067Z,20.97
2022-12-05T00:06:48.865Z,22.17
2022-12-05T00:09:18.511Z,22.57
2022-12-05T00:11:48.309Z,19.83
2022-12-05T00:14:18.187Z,22.73
2022-12-05T00:16:48.144Z,20.13
2022-12-05T00:19:17.811Z,22.17
2022-12-05T00:21:47.611Z,21.13
2022-12-05T00:24:19.607Z,22.60
2022-12-05T00:26:51.487Z,21.00
2022-12-05T00:29:23.921Z,21.35
2022-12-05T00:31:52.976Z,24.07
2022-12-05T00:34:22.829Z,21.70
2022-12-05T00:36:52.694Z,20.08
2022-12-05T00:39:22.534Z,25.10
2022-12-05T00:41:52.693Z,22.02
2022-12-05T00:44:22.580Z,20.00
2022-12-05T00:46:52.373Z,22.27
2022-12-05T00:49:25.206Z,20.10
2022-12-05T00:51:55.147Z,21.07
2022-12-05T00:54:24.960Z,22.37
2022-12-05T00:56:56.213Z,21.43
2022-12-05T00:59:25.930Z,22.00
2022-12-05T01:01:55.786Z,23.23
2022-12-05T01:04:26.857Z,20.73
2022-12-05T01:06:58.819Z,22.57
2022-12-05T01:09:28.900Z,22.70
2022-12-05T01:11:58.683Z,24.10
2022-12-05T01:14:28.754Z,23.60
2022-12-05T01:16:58.659Z,24.80
2022-12-05T01:19:31.549Z,23.50
2022-12-05T01:22:01.819Z,25.80
2022-12-05T01:24:32.893Z,24.25
2022-12-05T01:27:02.678Z,22.45
2022-12-05T01:29:32.707Z,24.67
2022-12-05T01:32:04.132Z,24.77
2022-12-05T01:34:34.007Z,23.13
2022-12-05T01:37:03.820Z,23.33
2022-12-05T01:39:33.673Z,26.27
2022-12-05T01:42:05.450Z,24.63
2022-12-05T01:44:38.337Z,24.37
2022-12-05T01:47:09.803Z,25.60
2022-12-05T01:49:42.350Z,23.03
2022-12-05T01:52:17.932Z,26.60
2022-12-05T01:54:51.017Z,25.55
2022-12-05T01:57:20.960Z,25.17
2022-12-05T01:59:53.694Z,23.17
2022-12-05T02:02:23.680Z,24.23
2022-12-05T02:05:02.534Z,24.10
2022-12-05T02:07:33.749Z,22.80
2022-12-05T02:10:03.564Z,23.83
2022-12-05T02:12:33.943Z,23.50
2022-12-05T02:15:21.808Z,23.77
2022-12-05T02:18:16.096Z,22.57
2022-12-05T02:20:54.728Z,23.53
2022-12-05T02:23:39.335Z,21.10
2022-12-05T02:26:34.479Z,23.20
2022-12-05T02:29:22.349Z,21.20
2022-12-05T02:32:07.476Z,21.23
2022-12-05T02:34:40.335Z,23.10
2022-12-05T02:37:15.676Z,19.63
2022-12-05T02:40:10.883Z,21.60
2022-12-05T02:42:52.359Z,20.60
2022-12-05T02:47:54.937Z,17.90
2022-12-05T02:50:33.744Z,16.67
2022-12-05T02:53:06.622Z,19.67
2022-12-05T02:55:37.747Z,20.10
2022-12-05T02:58:10.619Z,19.82
2022-12-05T03:00:42.878Z,17.63
2022-12-05T03:03:16.471Z,19.75
2022-12-05T03:05:58.147Z,19.80
2022-12-05T03:08:33.786Z,19.93
2022-12-05T03:11:04.878Z,18.63
2022-12-05T03:13:40.577Z,17.65
2022-12-05T03:16:13.169Z,17.97
2022-12-05T03:18:46.048Z,19.00
2022-12-05T03:21:33.487Z,17.97
2022-12-05T03:24:06.623Z,18.23
2022-12-05T03:26:39.467Z,18.00
2022-12-05T03:29:16.723Z,18.40
2022-12-05T03:31:56.493Z,19.12
2022-12-05T03:34:38.208Z,18.13
2022-12-05T03:37:11.518Z,18.80
2022-12-05T03:39:44.376Z,17.07
2022-12-05T03:42:16.597Z,15.03
2022-12-05T03:45:01.604Z,17.33
2022-12-05T03:47:40.028Z,17.20
2022-12-05T03:50:12.662Z,16.57
2022-12-05T03:53:18.643Z,15.90
2022-12-05T03:55:28.767Z,16.00
2022-12-05T03:58:05.042Z,15.30
2022-12-05T04:00:37.890Z,15.40
2022-12-05T04:03:17.842Z,15.17
2022-12-05T04:06:00.060Z,15.60
2022-12-05T04:08:39.222Z,15.07
2022-12-05T04:11:17.748Z,16.20
2022-12-05T04:13:53.341Z,16.00
2022-12-05T04:16:43.600Z,14.15
2022-12-05T04:19:57.105Z,13.30
2022-12-05T04:22:27.793Z,16.27
2022-12-05T04:25:18.353Z,16.37
2022-12-05T04:28:22.213Z,15.45
2022-12-05T04:31:06.941Z,13.15
2022-12-05T04:33:45.955Z,15.20
2022-12-05T04:36:18.795Z,15.00
2022-12-05T04:38:51.706Z,13.57
2022-12-05T04:41:24.334Z,15.53
2022-12-05T04:43:57.569Z,14.30
2022-12-05T04:46:27.497Z,14.63
2022-12-05T04:49:00.697Z,14.00
2022-12-05T04:51:34.492Z,13.53
2022-12-05T04:54:07.327Z,14.80
2022-12-05T04:56:39.340Z,16.00
2022-12-05T04:59:08.959Z,15.73
2022-12-05T05:01:44.871Z,14.57
2022-12-05T05:04:18.022Z,15.50
2022-12-05T05:06:48.284Z,15.50
2022-12-05T05:09:18.120Z,15.60
2022-12-05T05:11:48.308Z,15.17
2022-12-05T05:14:17.852Z,13.50
2022-12-05T05:16:48.509Z,14.53
2022-12-05T05:19:18.234Z,15.10
2022-12-05T05:21:48.781Z,14.23
2022-12-05T05:24:19.237Z,16.77
2022-12-05T05:26:55.519Z,14.53
2022-12-05T05:29:20.874Z,15.70
2022-12-05T05:31:50.682Z,15.00
2022-12-05T05:34:20.510Z,13.65
2022-12-05T05:36:54.584Z,14.10
2022-12-05T05:39:24.096Z,16.80
2022-12-05T05:41:53.883Z,15.60
2022-12-05T05:44:23.503Z,12.93
2022-12-05T05:46:53.417Z,17.03
2022-12-05T05:49:23.030Z,16.10
2022-12-05T05:51:52.878Z,13.30
2022-12-05T05:54:22.566Z,15.53
2022-12-05T05:56:52.385Z,16.90
2022-12-05T05:59:22.164Z,17.07
2022-12-05T06:01:52.060Z,15.53
2022-12-05T06:04:21.751Z,16.13
2022-12-05T06:06:51.673Z,15.93
2022-12-05T06:09:21.214Z,16.03
2022-12-05T06:11:51.045Z,14.87
2022-12-05T06:14:20.519Z,14.67
2022-12-05T06:16:50.379Z,15.00
2022-12-05T06:19:20.226Z,13.57
2022-12-05T06:21:52.877Z,14.07
2022-12-05T06:24:22.666Z,14.63
2022-12-05T06:26:52.602Z,14.10
2022-12-05T06:29:25.686Z,13.90
2022-12-05T06:34:22.521Z,15.77
2022-12-05T06:36:52.329Z,14.90
2022-12-05T06:39:22.138Z,13.97
2022-12-05T06:41:52.028Z,15.17
2022-12-05T06:44:21.969Z,13.20
2022-12-05T06:46:51.860Z,15.23
2022-12-05T06:49:26.325Z,14.60
2022-12-05T06:51:56.803Z,15.97
2022-12-05T06:54:26.857Z,15.70
2022-12-05T06:56:57.050Z,13.62
2022-12-05T06:59:26.795Z,13.97
2022-12-05T07:01:56.713Z,14.40
2022-12-05T07:04:26.639Z,14.97
2022-12-05T07:06:57.295Z,18.12
2022-12-05T07:09:29.184Z,18.47
2022-12-05T07:11:59.073Z,17.87
2022-12-05T07:14:47.061Z,18.37
2022-12-05T07:17:00.585Z,17.43
2022-12-05T07:19:30.540Z,17.50
2022-12-05T07:22:00.527Z,15.77
2022-12-05T07:24:30.602Z,14.60
2022-12-05T07:27:00.428Z,15.97
2022-12-05T07:29:39.459Z,15.90
2022-12-05T07:32:09.791Z,16.63
2022-12-05T07:34:39.464Z,17.07
2022-12-05T07:37:09.334Z,15.57
2022-12-05T07:39:39.299Z,16.13
2022-12-05T07:42:09.102Z,14.67
2022-12-05T07:44:38.894Z,15.90
2022-12-05T07:47:08.488Z,17.47
2022-12-05T07:49:39.849Z,15.70
2022-12-05T07:52:10.039Z,15.90
2022-12-05T07:54:39.767Z,16.57
2022-12-05T07:57:09.680Z,17.80
2022-12-05T07:59:39.471Z,15.87
2022-12-05T08:02:11.303Z,15.17
2022-12-05T08:04:41.150Z,14.93
2022-12-05T08:07:12.195Z,15.70
2022-12-05T08:09:42.154Z,15.03
2022-12-05T08:12:11.985Z,16.50
2022-12-05T08:14:41.834Z,15.03
2022-12-05T08:17:11.715Z,15.50
2022-12-05T08:19:41.558Z,16.17
2022-12-05T08:22:11.216Z,16.97
2022-12-05T08:24:40.990Z,15.40
2022-12-05T08:27:10.885Z,14.67
2022-12-05T08:29:40.644Z,14.07
2022-12-05T08:32:10.463Z,16.47
2022-12-05T08:34:40.249Z,16.33
2022-12-05T08:37:10.067Z,15.67
2022-12-05T08:39:40.100Z,15.90
2022-12-05T08:42:09.890Z,16.97
2022-12-05T08:44:40.005Z,14.47
2022-12-05T08:47:09.671Z,16.13
2022-12-05T08:49:39.568Z,14.83
2022-12-05T08:52:09.091Z,17.40
2022-12-05T08:54:38.973Z,16.27
2022-12-05T08:57:08.827Z,17.60
2022-12-05T08:59:38.535Z,12.47
2022-12-05T09:02:11.172Z,17.37
2022-12-05T09:04:41.126Z,15.90
2022-12-05T09:07:10.689Z,16.23
2022-12-05T09:09:40.602Z,18.57
2022-12-05T09:12:10.422Z,17.40
2022-12-05T09:14:40.233Z,16.80
2022-12-05T09:17:10.021Z,16.33
2022-12-05T09:19:39.977Z,16.47
2022-12-05T09:22:09.492Z,15.30
2022-12-05T09:24:39.640Z,14.97
2022-12-05T09:27:09.136Z,18.57
2022-12-05T09:29:39.315Z,15.50
2022-12-05T09:32:10.845Z,15.40
2022-12-05T09:34:40.801Z,16.87
2022-12-05T09:37:38.105Z,16.62
2022-12-05T09:39:49.679Z,15.35
2022-12-05T09:42:25.122Z,16.10
2022-12-05T09:45:04.066Z,16.40
2022-12-05T09:47:39.716Z,16.03
2022-12-05T09:50:15.606Z,16.10
2022-12-05T09:52:48.426Z,17.40
2022-12-05T09:55:21.794Z,18.93
2022-12-05T09:57:57.327Z,18.67
2022-12-05T10:00:30.297Z,17.70
2022-12-05T10:03:18.123Z,17.93
2022-12-05T10:05:55.026Z,17.87
2022-12-05T10:08:43.762Z,18.90
2022-12-05T10:11:22.231Z,17.73
2022-12-05T10:14:28.148Z,17.73
2022-12-05T10:17:01.230Z,16.83
2022-12-05T10:19:37.040Z,18.93
2022-12-05T10:22:09.736Z,20.07
2022-12-05T10:24:42.569Z,20.10
2022-12-05T10:27:18.124Z,18.63
2022-12-05T10:30:06.302Z,19.85
2022-12-05T10:32:58.549Z,19.30
2022-12-05T10:35:40.381Z,19.10
2022-12-05T10:38:16.151Z,18.23
2022-12-05T10:40:49.000Z,19.30
2022-12-05T10:43:29.707Z,20.30
2022-12-05T10:46:01.828Z,19.17
2022-12-05T10:48:33.385Z,20.23
2022-12-05T10:51:03.476Z,18.30
2022-12-05T10:53:40.330Z,19.70
2022-12-05T10:56:46.365Z,22.10
2022-12-05T10:59:19.244Z,20.97
2022-12-05T11:01:53.577Z,21.53
2022-12-05T11:04:29.963Z,20.57
2022-12-05T11:07:05.585Z,19.87
2022-12-05T11:09:38.961Z,21.15
2022-12-05T11:12:11.719Z,20.80
2022-12-05T11:14:41.989Z,19.50
2022-12-05T11:17:15.733Z,19.80
2022-12-05T11:19:46.746Z,19.98
2022-12-05T11:22:19.329Z,20.00
2022-12-05T11:24:50.015Z,20.23
2022-12-05T11:27:22.907Z,20.25
2022-12-05T11:29:58.895Z,17.20
2022-12-05T11:32:31.769Z,18.80
2022-12-05T11:35:16.696Z,19.57
2022-12-05T11:38:04.846Z,18.05
2022-12-05T11:40:40.700Z,18.97
2022-12-05T11:43:32.970Z,19.63
2022-12-05T11:46:05.861Z,19.37
2022-12-05T11:48:43.708Z,21.07
2022-12-05T11:51:37.650Z,19.53
2022-12-05T11:55:02.823Z,18.50
2022-12-05T11:57:21.270Z,17.77
2022-12-05T11:59:54.399Z,17.67
2022-12-05T12:02:45.718Z,19.87
2022-12-05T12:05:33.499Z,17.60
2022-12-05T12:08:07.137Z,19.20
2022-12-05T12:10:54.956Z,17.80
2022-12-05T12:13:42.963Z,19.07
2022-12-05T12:16:45.295Z,17.98
2022-12-05T12:19:23.854Z,20.07
2022-12-05T12:22:06.639Z,20.13
2022-12-05T12:24:51.614Z,20.53
2022-12-05T12:27:46.163Z,20.30
2022-12-05T12:30:27.883Z,21.07
2022-12-05T12:35:33.344Z,19.20
2022-12-05T12:38:15.167Z,19.40
2022-12-05T12:40:58.289Z,19.37
2022-12-05T12:43:53.257Z,20.10
2022-12-05T12:46:19.275Z,17.77
2022-12-05T12:48:58.007Z,19.80
2022-12-05T12:51:30.825Z,20.63
2022-12-05T12:54:40.394Z,21.40
2022-12-05T12:57:13.935Z,20.20
2022-12-05T12:59:58.802Z,18.80
2022-12-05T13:02:51.500Z,17.60
2022-12-05T13:05:42.292Z,19.77
2022-12-05T13:08:23.726Z,19.42
2022-12-05T13:10:54.546Z,19.60
2022-12-05T13:13:32.984Z,19.17
2022-12-05T13:16:07.837Z,19.97
2022-12-05T13:18:37.826Z,23.33
2022-12-05T13:21:09.943Z,20.57
2022-12-05T13:23:46.214Z,21.20
2022-12-05T13:26:17.005Z,21.17
2022-12-05T13:28:55.779Z,21.20
2022-12-05T13:31:45.777Z,19.60
2022-12-05T13:34:33.468Z,22.73
2022-12-05T13:37:30.703Z,20.57
2022-12-05T13:40:18.404Z,19.57
2022-12-05T13:42:49.017Z,18.97
2022-12-05T13:45:21.259Z,21.07
2022-12-05T13:47:57.065Z,18.80
2022-12-05T13:50:38.172Z,19.50
2022-12-05T13:53:27.566Z,15.13
2022-12-05T13:56:00.775Z,22.13
2022-12-05T13:58:36.527Z,21.60
2022-12-05T14:01:37.015Z,21.33
2022-12-05T14:04:10.070Z,21.25
2022-12-05T14:06:45.452Z,23.47
2022-12-05T14:09:29.773Z,22.63
2022-12-05T14:12:14.782Z,21.47
2022-12-05T14:15:04.026Z,21.55
2022-12-05T14:17:45.167Z,22.47
2022-12-05T14:20:26.606Z,21.60
2022-12-05T14:26:14.002Z,20.02
2022-12-05T14:29:03.642Z,22.90
2022-12-05T14:31:52.959Z,21.53
2022-12-05T14:34:28.456Z,22.07
2022-12-05T14:37:17.978Z,24.43
2022-12-05T14:39:52.190Z,22.87
2022-12-05T14:42:39.976Z,23.43
2022-12-05T14:45:32.862Z,21.20
2022-12-05T14:48:18.586Z,23.67
2022-12-05T14:50:51.702Z,25.60
2022-12-05T14:53:33.205Z,25.45
2022-12-05T14:56:13.662Z,25.63
2022-12-05T14:59:02.171Z,24.73
2022-12-05T15:01:51.964Z,23.70
2022-12-05T15:04:45.933Z,21.33
2022-12-05T15:07:22.828Z,22.47
2022-12-05T15:10:13.136Z,23.20
2022-12-05T15:12:57.503Z,23.67
2022-12-05T15:15:45.959Z,21.57
2022-12-05T15:18:25.360Z,22.30
2022-12-05T15:21:00.928Z,22.20
2022-12-05T15:23:50.033Z,23.38
2022-12-05T15:26:48.428Z,22.25
2022-12-05T15:29:15.175Z,22.30
2022-12-05T15:31:59.886Z,21.10
2022-12-05T15:34:32.809Z,21.60
2022-12-05T15:37:11.433Z,21.37
2022-12-05T15:40:09.995Z,19.73
2022-12-05T15:42:42.971Z,19.57
2022-12-05T15:45:19.918Z,18.00
2022-12-05T15:47:52.417Z,19.35
2022-12-05T15:50:44.843Z,21.60
2022-12-05T15:53:33.798Z,18.43
2022-12-05T15:56:09.468Z,19.67
2022-12-05T15:58:57.351Z,18.60
2022-12-05T16:01:29.015Z,18.80
2022-12-05T16:04:09.296Z,19.00
2022-12-05T16:06:49.564Z,21.40
2022-12-05T16:09:24.576Z,19.67
2022-12-05T16:11:58.346Z,20.70
2022-12-05T16:14:58.843Z,20.97
2022-12-05T16:17:11.355Z,19.40
2022-12-05T16:19:41.224Z,17.70
2022-12-05T16:22:16.750Z,18.23
2022-12-05T16:25:04.689Z,18.63
2022-12-05T16:27:39.296Z,20.20
2022-12-05T16:30:15.011Z,20.30
2022-12-05T16:32:46.472Z,21.63
2022-12-05T16:35:37.488Z,22.02
2022-12-05T16:38:19.952Z,18.82
2022-12-05T16:40:55.886Z,19.40
2022-12-05T16:43:34.507Z,18.03
2022-12-05T16:46:17.237Z,19.70
2022-12-05T16:48:49.857Z,17.23
2022-12-05T16:51:22.000Z,18.13
2022-12-05T16:53:55.979Z,20.47
2022-12-05T16:56:33.890Z,21.70
2022-12-05T16:59:06.100Z,19.43
2022-12-05T17:01:39.195Z,19.10
2022-12-05T17:04:16.106Z,20.73
2022-12-05T17:06:45.975Z,17.07
2022-12-05T17:09:16.262Z,21.07
2022-12-05T17:11:48.952Z,19.67
2022-12-05T17:14:21.309Z,21.37
2022-12-05T17:16:51.179Z,20.43
2022-12-05T17:19:20.957Z,21.20
2022-12-05T17:21:50.975Z,23.43
2022-12-05T17:24:20.888Z,25.03
2022-12-05T17:26:50.686Z,22.57
2022-12-05T17:29:20.487Z,25.02
2022-12-05T17:31:50.426Z,24.13
2022-12-05T17:34:20.360Z,22.85
2022-12-05T17:36:51.442Z,22.50
2022-12-05T17:39:26.488Z,22.63
2022-12-05T17:41:58.042Z,21.17
2022-12-05T17:44:28.007Z,23.57
2022-12-05T17:47:00.718Z,21.47
2022-12-05T17:49:29.364Z,21.57
2022-12-05T17:54:32.897Z,19.73
2022-12-05T17:57:03.716Z,21.47
2022-12-05T18:02:05.664Z,19.95
2022-12-05T18:04:35.404Z,20.45
2022-12-05T18:07:05.272Z,20.93
2022-12-05T18:09:35.180Z,20.03
2022-12-05T18:12:05.198Z,20.57
2022-12-05T18:14:36.336Z,23.22
2022-12-05T18:17:08.449Z,24.50
2022-12-05T18:19:39.393Z,25.57
2022-12-05T18:22:10.161Z,26.30
2022-12-05T18:24:40.018Z,27.77
2022-12-05T18:27:12.000Z,29.57
2022-12-05T18:29:41.860Z,27.67
2022-12-05T18:32:12.277Z,29.34
2022-12-05T18:34:41.889Z,29.53
2022-12-05T18:37:11.602Z,29.57
2022-12-05T18:39:41.440Z,32.00
2022-12-05T18:42:14.949Z,31.20
2022-12-05T18:44:42.632Z,31.20
2022-12-05T18:47:12.409Z,28.73
2022-12-05T18:49:42.761Z,29.52
2022-12-05T18:52:12.819Z,26.23
2022-12-05T18:55:03.029Z,24.93
2022-12-05T18:57:20.693Z,24.27
2022-12-05T18:59:51.995Z,27.25
2022-12-05T19:02:21.808Z,26.07
2022-12-05T19:04:53.576Z,24.97
2022-12-05T19:07:24.129Z,24.47
2022-12-05T19:09:54.189Z,23.92
2022-12-05T19:12:24.058Z,23.57
2022-12-05T19:14:54.961Z,25.07
2022-12-05T19:17:25.032Z,23.83
2022-12-05T19:19:58.670Z,22.63
2022-12-05T19:22:30.308Z,22.90
2022-12-05T19:25:03.785Z,23.00
2022-12-05T19:27:37.068Z,21.62
2022-12-05T19:30:10.097Z,21.67
2022-12-05T19:32:40.917Z,21.47
2022-12-05T19:35:10.809Z,21.57
2022-12-05T19:37:42.785Z,22.20
2022-12-05T19:40:12.983Z,21.97
2022-12-05T19:42:43.498Z,22.57
2022-12-05T19:45:17.783Z,21.87
2022-12-05T19:47:44.861Z,22.50
2022-12-05T19:50:14.974Z,22.20
2022-12-05T19:52:46.668Z,22.07
2022-12-05T19:55:16.626Z,21.62
2022-12-05T19:57:47.384Z,21.90
2022-12-05T20:00:19.115Z,22.17
2022-12-05T20:02:50.465Z,22.67
2022-12-05T20:05:20.429Z,21.23
2022-12-05T20:07:50.334Z,22.70
2022-12-05T20:10:20.466Z,20.80
2022-12-05T20:12:50.182Z,21.13
2022-12-05T20:15:20.057Z,22.93
2022-12-05T20:17:53.155Z,20.53
2022-12-05T20:20:21.386Z,21.62
2022-12-05T20:22:51.308Z,23.10
2022-12-05T20:25:21.645Z,25.17
2022-12-05T20:27:53.493Z,25.73
2022-12-05T20:30:23.022Z,23.90
2022-12-05T20:32:52.901Z,23.97
2022-12-05T20:35:24.358Z,25.10
2022-12-05T20:37:55.177Z,24.57
2022-12-05T20:40:25.614Z,23.10
2022-12-05T20:42:57.286Z,24.20
2022-12-05T20:45:27.100Z,26.10
2022-12-05T20:47:57.000Z,25.40
2022-12-05T20:50:26.804Z,21.17
2022-12-05T20:52:56.963Z,22.13
2022-12-05T20:55:26.773Z,20.40
2022-12-05T20:58:00.152Z,24.50
2022-12-05T21:00:29.097Z,21.77
2022-12-05T21:02:59.882Z,25.20
2022-12-05T21:05:31.902Z,24.32
2022-12-05T21:08:01.908Z,20.07
2022-12-05T21:10:31.909Z,21.43
2022-12-05T21:13:03.626Z,23.33
2022-12-05T21:15:33.524Z,22.93
2022-12-05T21:18:04.192Z,23.37
2022-12-05T21:20:38.909Z,21.85
2022-12-05T21:23:08.023Z,22.65
2022-12-05T21:25:38.740Z,23.70
2022-12-05T21:28:10.477Z,23.15
2022-12-05T21:30:44.383Z,20.80
2022-12-05T21:33:14.387Z,22.70
2022-12-05T21:35:56.727Z,22.10
2022-12-05T21:38:26.643Z,21.67
2022-12-05T21:40:56.494Z,22.00
2022-12-05T21:43:26.428Z,22.83
2022-12-05T21:45:56.918Z,24.00
2022-12-05T21:48:29.814Z,23.50
2022-12-05T21:51:00.972Z,20.73
2022-12-05T21:53:36.798Z,24.70
2022-12-05T21:56:11.439Z,23.63
2022-12-05T21:58:42.754Z,22.77
2022-12-05T22:01:27.700Z,23.63
2022-12-05T22:03:59.784Z,24.83
2022-12-05T22:06:33.234Z,22.87
2022-12-05T22:09:04.365Z,22.95
2022-12-05T22:11:35.364Z,21.65
2022-12-05T22:14:05.194Z,20.70
2022-12-05T22:16:35.411Z,22.50
2022-12-05T22:19:07.416Z,22.67
2022-12-05T22:21:37.409Z,22.77
2022-12-05T22:24:09.279Z,23.37
2022-12-05T22:26:39.478Z,21.52
2022-12-05T22:29:09.058Z,24.83
2022-12-05T22:31:38.979Z,21.77
2022-12-05T22:34:09.708Z,23.70
2022-12-05T22:36:39.639Z,22.50
2022-12-05T22:39:10.935Z,24.47
2022-12-05T22:41:40.524Z,21.95
2022-12-05T22:44:10.101Z,24.50
2022-12-05T22:46:40.250Z,22.63
2022-12-05T22:49:11.685Z,22.60
2022-12-05T22:51:41.762Z,22.30
2022-12-05T22:54:11.279Z,24.17
2022-12-05T22:56:41.125Z,26.30
2022-12-05T22:59:14.956Z,29.63
2022-12-05T23:01:45.129Z,29.75
2022-12-05T23:04:14.845Z,29.83
2022-12-05T23:06:44.741Z,29.93
2022-12-05T23:09:14.591Z,27.47
2022-12-05T23:11:44.416Z,29.57
2022-12-05T23:14:14.220Z,29.10
2022-12-05T23:16:44.141Z,29.17
2022-12-05T23:19:13.738Z,28.23
2022-12-05T23:21:43.622Z,28.13
2022-12-05T23:24:14.274Z,29.83
2022-12-05T23:26:46.280Z,26.77
2022-12-05T23:29:16.552Z,30.13
2022-12-05T23:31:46.739Z,27.40
2022-12-05T23:34:16.500Z,24.90
2022-12-05T23:36:46.330Z,24.70
2022-12-05T23:39:16.421Z,28.07
2022-12-05T23:41:46.736Z,24.70
2022-12-05T23:44:16.376Z,24.70
2022-12-05T23:46:46.418Z,25.27
2022-12-05T23:49:15.973Z,29.40
2022-12-05T23:51:45.810Z,25.17
2022-12-05T23:54:17.051Z,26.20
2022-12-05T23:56:47.359Z,25.13
2022-12-05T23:59:17.157Z,24.77
